Time;durP1;ratioP1;P1;durP2;ratioP2;P2;SDS_P1;SDS_P2;PMS_P1;PMS_P2;Temp;Humidity;BMP_temperature;BMP_pressure;BME280_temperature;BME280_humidity;BME280_pressure;Samples;Min_cycle;Max_cycle;Signal;HPM_P1;HPM_P2
2024/01/14 10:55:41;;;;;;;27.27;11.10;;;;;;;-0.51;100.00;98500.44;5171641;27;20554;-84
2024/01/14 10:58:58;;;;;;;32.17;12.77;;;;;;;0.21;100.00;98517.69;5153375;27;39445;-84
2024/01/14 11:01:46;;;;;;;25.13;11.80;;;;;;;0.90;99.21;98524.41;5152988;27;42188;-85
2024/01/14 11:07:07;;;;;;;24.67;11.60;;;;;;;1.42;88.00;98518.50;5209722;27;42343;-82
2024/01/14 11:09:34;;;;;;;24.40;12.67;;;;;;;1.77;86.85;98551.28;5177518;27;39996;-82
2024/01/14 11:12:11;;;;;;;29.27;12.70;;;;;;;1.83;84.66;98528.53;5177389;27;42950;-82
2024/01/14 11:14:46;;;;;;;23.87;12.17;;;;;;;1.93;83.53;98514.25;5177467;27;41899;-82
2024/01/14 11:17:24;;;;;;;22.50;11.20;;;;;;;2.13;81.91;98517.03;5177808;27;41536;-83
2024/01/14 11:19:54;;;;;;;23.50;11.00;;;;;;;2.30;80.78;98519.94;5177148;27;41209;-83
2024/01/14 11:22:24;;;;;;;27.53;12.53;;;;;;;2.26;79.30;98499.19;5177504;27;42103;-83
2024/01/14 11:24:51;;;;;;;28.23;11.37;;;;;;;2.57;78.68;98506.81;5176828;27;41478;-82
2024/01/14 11:27:21;;;;;;;24.80;13.37;;;;;;;2.63;78.25;98486.50;5177258;27;41244;-83
2024/01/14 11:29:49;;;;;;;24.53;11.83;;;;;;;2.80;75.39;98509.44;5177239;27;40401;-83
2024/01/14 11:32:19;;;;;;;22.47;10.80;;;;;;;3.00;76.28;98520.00;5177237;27;41068;-83
2024/01/14 11:34:54;;;;;;;21.43;11.80;;;;;;;3.04;74.88;98508.53;5194282;27;43127;-82
2024/01/14 11:37:42;;;;;;;25.87;11.77;;;;;;;3.18;74.87;98508.84;5177281;27;42384;-82
2024/01/14 11:40:11;;;;;;;23.80;11.20;;;;;;;3.13;74.01;98475.91;5176455;27;38559;-83
2024/01/14 11:42:49;;;;;;;27.23;12.17;;;;;;;3.34;73.44;98495.19;5213015;27;41665;-83
2024/01/14 11:45:41;;;;;;;25.43;11.40;;;;;;;3.39;73.39;98472.28;5194332;27;41812;-82
2024/01/14 11:48:13;;;;;;;24.17;11.77;;;;;;;3.51;72.76;98469.16;5176895;27;41838;-85
2024/01/14 11:50:41;;;;;;;26.47;12.00;;;;;;;3.62;72.32;98459.09;5176737;27;42423;-84
2024/01/14 11:53:09;;;;;;;21.10;11.13;;;;;;;3.69;70.55;98463.19;5176632;27;42750;-83
2024/01/14 11:55:37;;;;;;;24.80;11.13;;;;;;;3.77;70.81;98458.50;5176492;27;42916;-82
2024/01/14 11:58:17;;;;;;;24.53;12.10;;;;;;;3.93;70.56;98470.03;5176659;27;41259;-83
2024/01/14 12:00:47;;;;;;;19.20;11.17;;;;;;;3.97;70.16;98455.88;5177137;27;39453;-82
2024/01/14 12:03:16;;;;;;;19.83;10.23;;;;;;;4.12;69.74;98454.38;5194024;27;42787;-83
2024/01/14 12:05:44;;;;;;;21.33;10.13;;;;;;;3.94;69.01;98419.34;5167790;27;42985;-83
2024/01/14 12:08:13;;;;;;;24.87;11.07;;;;;;;4.24;69.04;98426.78;5162631;27;41243;-82
2024/01/14 12:10:41;;;;;;;19.70;9.33;;;;;;;4.63;68.76;98434.66;5162679;27;40124;-83
2024/01/14 12:13:09;;;;;;;22.20;10.73;;;;;;;4.80;67.02;98426.03;5180074;27;42077;-83
2024/01/14 12:15:38;;;;;;;26.47;12.63;;;;;;;4.86;65.92;98421.31;5179866;27;41781;-83
2024/01/14 12:18:06;;;;;;;25.17;11.23;;;;;;;4.98;66.18;98430.41;5162316;27;41226;-83
2024/01/14 12:20:33;;;;;;;25.33;13.00;;;;;;;4.88;65.42;98410.75;5162251;27;40348;-83
2024/01/14 12:23:04;;;;;;;25.10;12.23;;;;;;;4.84;64.74;98407.44;5162267;27;42760;-82
2024/01/14 12:25:32;;;;;;;27.13;12.13;;;;;;;4.84;65.12;98402.19;5176457;27;42695;-84
2024/01/14 12:27:59;;;;;;;23.80;11.97;;;;;;;4.77;64.84;98394.69;5161801;27;44496;-83
2024/01/14 12:30:30;;;;;;;25.00;12.97;;;;;;;4.76;65.27;98399.06;5162229;27;41654;-82
2024/01/14 12:33:05;;;;;;;26.53;13.10;;;;;;;4.60;65.06;98363.97;5179889;27;41690;-83
2024/01/14 12:35:34;;;;;;;28.83;14.20;;;;;;;4.71;65.01;98385.31;5161785;27;44621;-83
2024/01/14 12:38:03;;;;;;;28.53;11.90;;;;;;;4.58;64.45;98357.94;5161861;27;42442;-83
2024/01/14 12:40:31;;;;;;;27.20;12.87;;;;;;;4.74;64.37;98381.69;5162303;27;39400;-83
2024/01/14 12:43:00;;;;;;;32.60;14.87;;;;;;;4.79;63.99;98384.97;5161729;27;41636;-83
2024/01/14 12:45:27;;;;;;;26.70;12.40;;;;;;;4.75;63.31;98376.38;5161970;27;41724;-84
2024/01/14 12:48:01;;;;;;;30.03;13.30;;;;;;;4.64;62.71;98362.91;5161777;27;41467;-84
2024/01/14 12:50:29;;;;;;;26.30;12.63;;;;;;;4.69;62.67;98372.28;5180189;27;40078;-83
2024/01/14 12:53:02;;;;;;;27.53;12.37;;;;;;;4.82;62.84;98379.59;5162067;27;42225;-84
2024/01/14 12:55:31;;;;;;;25.23;11.77;;;;;;;4.97;63.04;98365.72;5161784;27;44006;-82
2024/01/14 12:58:00;;;;;;;30.27;12.43;;;;;;;5.24;62.97;98356.53;5161795;27;42366;-83
2024/01/14 13:00:29;;;;;;;23.13;11.00;;;;;;;5.30;61.83;98347.50;5179335;27;40333;-83
2024/01/14 13:02:57;;;;;;;28.23;11.70;;;;;;;5.27;62.35;98342.41;5161567;27;40741;-84
2024/01/14 13:05:26;;;;;;;22.87;11.27;;;;;;;5.32;62.48;98335.97;5161485;27;42135;-83
2024/01/14 13:07:54;;;;;;;25.93;12.27;;;;;;;5.50;61.23;98333.38;5161710;27;43669;-82
2024/01/14 13:10:21;;;;;;;21.20;11.30;;;;;;;5.63;60.61;98318.69;5161348;27;40732;-82
2024/01/14 13:12:49;;;;;;;25.67;11.10;;;;;;;5.78;60.36;98339.78;5162589;27;41503;-83
2024/01/14 13:15:17;;;;;;;23.23;11.67;;;;;;;5.98;59.76;98337.91;5163376;27;44805;-83
2024/01/14 13:17:45;;;;;;;27.03;12.67;;;;;;;5.87;59.78;98312.16;5161739;27;41206;-83
2024/01/14 13:20:13;;;;;;;27.90;11.67;;;;;;;5.87;59.07;98316.56;5162852;27;38939;-83
2024/01/14 13:22:44;;;;;;;21.23;10.83;;;;;;;5.87;59.09;98322.69;5163301;27;41985;-83
2024/01/14 13:25:11;;;;;;;27.30;11.00;;;;;;;5.85;58.94;98314.03;5162445;27;44027;-83
2024/01/14 13:27:39;;;;;;;24.93;10.80;;;;;;;5.83;58.72;98304.50;5161377;27;42134;-83
2024/01/14 13:30:12;;;;;;;26.23;11.70;;;;;;;5.77;58.53;98289.94;5161522;27;40942;-83
2024/01/14 13:32:40;;;;;;;22.17;10.37;;;;;;;5.81;58.34;98317.72;5143429;27;42476;-83
2024/01/14 13:35:08;;;;;;;21.27;10.33;;;;;;;5.46;58.96;98264.41;5160918;27;41824;-83
2024/01/14 13:37:37;;;;;;;24.87;11.23;;;;;;;5.49;58.82;98285.25;5160818;27;41481;-84
2024/01/14 13:40:16;;;;;;;22.60;11.07;;;;;;;5.27;59.28;98261.88;5160078;27;40267;-83
2024/01/14 13:46:09;;;;;;;25.40;11.80;;;;;;;5.33;59.25;98284.31;5196836;27;43613;-84
2024/01/14 13:48:37;;;;;;;22.00;10.57;;;;;;;5.28;59.62;98275.84;5158704;27;40885;-83
2024/01/14 13:51:05;;;;;;;23.50;11.37;;;;;;;5.00;59.56;98224.75;5143756;27;39502;-83
2024/01/14 13:53:33;;;;;;;26.30;11.17;;;;;;;5.23;60.15;98248.97;5160447;27;42469;-83
2024/01/14 13:56:06;;;;;;;25.67;11.20;;;;;;;5.25;59.79;98245.34;5160615;27;43471;-83
2024/01/14 13:58:34;;;;;;;21.13;10.13;;;;;;;5.22;59.35;98261.25;5143848;27;42892;-83
2024/01/14 14:01:01;;;;;;;23.80;11.43;;;;;;;5.04;59.76;98256.94;5161541;27;40529;-83
2024/01/14 14:09:01;;;;;;;26.10;11.67;;;;;;;4.42;61.07;98226.75;5183503;27;42696;-84
2024/01/14 14:11:50;;;;;;;31.07;12.23;;;;;;;4.01;61.29;98188.53;5139658;27;40006;-83
2024/01/14 14:14:19;;;;;;;29.67;12.70;;;;;;;4.14;61.84;98221.97;5138824;27;40664;-83
2024/01/14 14:17:06;;;;;;;27.53;12.47;;;;;;;3.86;62.43;98177.00;5139116;27;43439;-83
2024/01/14 14:19:34;;;;;;;23.93;10.83;;;;;;;4.00;62.70;98213.88;5139659;27;41355;-83
2024/01/14 14:22:10;;;;;;;27.60;11.30;;;;;;;3.98;63.11;98211.31;5139191;27;39221;-83
2024/01/14 14:27:20;;;;;;;27.33;11.67;;;;;;;3.93;63.48;98212.47;5138368;27;41528;-84
2024/01/14 14:29:48;;;;;;;25.43;12.20;;;;;;;3.93;63.97;98213.34;5138591;27;41096;-83
2024/01/14 14:32:15;;;;;;;25.53;11.63;;;;;;;3.63;63.68;98151.03;5133388;27;39176;-84
2024/01/14 14:34:44;;;;;;;30.30;13.00;;;;;;;3.98;63.23;98197.38;5117207;27;42657;-83
2024/01/14 14:37:11;;;;;;;28.63;13.40;;;;;;;3.85;63.33;98173.53;5117429;27;44240;-83
2024/01/14 14:39:39;;;;;;;25.87;12.20;;;;;;;4.10;63.49;98183.72;5117323;27;42612;-83
2024/01/14 14:42:08;;;;;;;29.73;13.87;;;;;;;4.19;62.93;98183.28;5118153;27;39160;-84
2024/01/14 14:44:37;;;;;;;30.37;12.90;;;;;;;4.24;63.03;98186.53;5117695;27;41785;-84
2024/01/14 14:47:05;;;;;;;28.30;12.03;;;;;;;4.09;62.95;98154.97;5134569;27;42154;-84
2024/01/14 14:49:32;;;;;;;30.07;14.80;;;;;;;4.21;62.79;98170.09;5135522;27;43088;-84
2024/01/14 14:52:00;;;;;;;27.33;12.60;;;;;;;3.97;63.24;98151.16;5117773;27;40227;-84
2024/01/14 14:54:29;;;;;;;35.93;14.73;;;;;;;3.89;63.30;98166.38;5117277;27;41823;-83
2024/01/14 14:56:56;;;;;;;32.20;14.17;;;;;;;3.66;63.85;98146.50;5116956;27;42831;-83
2024/01/14 14:59:24;;;;;;;29.37;13.83;;;;;;;3.54;63.99;98147.06;5118082;27;41175;-85
2024/01/14 15:01:53;;;;;;;31.00;14.73;;;;;;;3.41;64.20;98145.94;5134767;27;42621;-85
2024/01/14 15:04:21;;;;;;;33.13;13.33;;;;;;;3.15;64.90;98120.91;5118562;27;40955;-83
2024/01/14 15:06:48;;;;;;;28.60;12.30;;;;;;;3.20;65.20;98145.97;5117391;27;43249;-84
2024/01/14 15:09:16;;;;;;;30.57;13.27;;;;;;;2.95;65.63;98120.97;5117318;27;42244;-84
2024/01/14 15:11:43;;;;;;;32.33;14.13;;;;;;;2.93;66.21;98139.31;5118397;27;41657;-84
2024/01/14 15:14:11;;;;;;;33.67;13.13;;;;;;;2.69;66.48;98119.47;5152909;27;42662;-83
2024/01/14 15:16:40;;;;;;;30.27;12.53;;;;;;;2.59;67.01;98119.00;5117883;27;44106;-84
2024/01/14 15:19:09;;;;;;;28.40;12.50;;;;;;;2.57;67.34;98109.53;5135124;27;42439;-84
2024/01/14 15:21:37;;;;;;;33.00;12.77;;;;;;;2.64;67.52;98121.41;5135567;27;39737;-84
2024/01/14 15:24:05;;;;;;;29.00;12.10;;;;;;;2.61;67.73;98117.16;5134659;27;41816;-83
2024/01/14 15:26:32;;;;;;;30.20;12.50;;;;;;;2.45;68.25;98090.84;5135522;27;43063;-85
2024/01/14 15:28:59;;;;;;;28.60;12.47;;;;;;;2.41;68.71;98089.28;5134583;27;41211;-85
2024/01/14 15:31:27;;;;;;;26.50;12.50;;;;;;;2.31;68.62;98077.50;5118019;27;40328;-82
2024/01/14 15:33:55;;;;;;;29.53;12.30;;;;;;;2.34;68.77;98093.06;5116731;27;42424;-83
2024/01/14 15:36:24;;;;;;;22.80;11.17;;;;;;;2.36;69.52;98095.59;5117189;27;43111;-83
2024/01/14 15:38:52;;;;;;;27.93;11.03;;;;;;;2.23;69.34;98082.19;5133759;27;42265;-84
2024/01/14 15:41:19;;;;;;;26.17;11.07;;;;;;;2.17;69.53;98077.22;5134545;27;39739;-84
2024/01/14 15:43:48;;;;;;;26.77;11.80;;;;;;;2.13;69.65;98073.88;5120354;27;41912;-83
